Time;durP1;ratioP1;P1;durP2;ratioP2;P2;SDS_P1;SDS_P2;PMS_P1;PMS_P2;Temp;Humidity;BMP_temperature;BMP_pressure;BME280_temperature;BME280_humidity;BME280_pressure;Samples;Min_cycle;Max_cycle;Signal;HPM_P1;HPM_P2
2023/11/17 00:01:17;;;;;;;15.63;7.53;;;6.00;99.90;;;;;;5020938;28;20029;-83
2023/11/17 00:03:43;;;;;;;12.30;7.60;;;5.90;99.90;;;;;;5022897;28;20101;-83
2023/11/17 00:06:08;;;;;;;14.27;8.43;;;5.90;99.90;;;;;;5023884;28;20041;-83
2023/11/17 00:08:34;;;;;;;15.00;8.27;;;5.90;99.90;;;;;;5022053;28;20371;-83
2023/11/17 00:11:00;;;;;;;14.47;9.13;;;5.80;99.90;;;;;;5024659;28;20490;-83
2023/11/17 00:13:26;;;;;;;13.63;8.20;;;5.80;99.90;;;;;;5020737;28;20042;-83
2023/11/17 00:15:51;;;;;;;17.27;9.80;;;5.80;99.90;;;;;;5022957;28;20025;-83
2023/11/17 00:18:20;;;;;;;14.87;9.30;;;5.80;99.90;;;;;;5020485;28;20026;-83
2023/11/17 00:20:46;;;;;;;16.40;8.87;;;5.70;99.90;;;;;;5022934;28;20030;-83
2023/11/17 00:23:13;;;;;;;18.30;9.67;;;5.70;99.90;;;;;;5022003;28;20040;-83
2023/11/17 00:25:39;;;;;;;16.60;10.20;;;5.70;99.90;;;;;;5021666;28;20552;-83
2023/11/17 00:28:05;;;;;;;22.60;10.97;;;5.70;99.90;;;;;;5022227;28;20026;-83
2023/11/17 00:30:31;;;;;;;13.27;9.43;;;5.60;99.90;;;;;;5019838;28;20486;-83
2023/11/17 00:32:57;;;;;;;14.40;9.57;;;5.60;99.90;;;;;;5022766;28;20026;-83
2023/11/17 00:35:22;;;;;;;18.27;10.13;;;5.60;99.90;;;;;;5020741;28;20022;-83
2023/11/17 00:37:51;;;;;;;17.80;9.87;;;5.60;99.90;;;;;;5022882;28;20022;-82
2023/11/17 00:40:17;;;;;;;17.23;10.27;;;5.60;99.90;;;;;;5021111;28;20018;-82
2023/11/17 00:42:43;;;;;;;14.40;10.30;;;5.60;99.90;;;;;;5021567;28;20052;-82
2023/11/17 00:45:09;;;;;;;17.27;10.63;;;5.60;99.90;;;;;;5022826;28;20073;-82
2023/11/17 00:47:35;;;;;;;15.53;9.83;;;5.60;99.90;;;;;;5021739;28;20087;-82
2023/11/17 00:50:01;;;;;;;17.70;10.43;;;5.60;99.90;;;;;;5023252;28;20474;-82
2023/11/17 00:52:27;;;;;;;15.77;10.20;;;5.60;99.90;;;;;;5020868;28;20037;-81
2023/11/17 00:54:55;;;;;;;16.43;10.33;;;5.60;99.90;;;;;;5022499;28;20029;-82
2023/11/17 00:57:21;;;;;;;18.50;10.23;;;5.60;99.90;;;;;;5020690;28;20339;-81
2023/11/17 00:59:47;;;;;;;17.43;10.70;;;5.60;99.90;;;;;;5022871;28;20078;-82
2023/11/17 01:02:15;;;;;;;15.60;10.03;;;5.60;99.90;;;;;;5007029;28;20033;-82
2023/11/17 01:04:42;;;;;;;15.53;9.93;;;5.60;99.90;;;;;;5000439;28;20041;-81
2023/11/17 01:07:08;;;;;;;17.83;11.13;;;5.60;99.90;;;;;;5002249;28;20060;-82
2023/11/17 01:09:33;;;;;;;13.67;9.27;;;5.60;99.90;;;;;;5000227;28;20448;-81
2023/11/17 01:11:59;;;;;;;16.23;10.17;;;5.60;99.90;;;;;;5002267;28;20018;-82
2023/11/17 01:14:25;;;;;;;17.03;11.10;;;5.60;99.90;;;;;;5000745;28;20046;-82
2023/11/17 01:16:51;;;;;;;19.17;11.07;;;5.70;99.90;;;;;;5001793;28;20386;-81
2023/11/17 01:19:17;;;;;;;18.17;10.47;;;5.60;99.90;;;;;;5002195;28;20014;-81
2023/11/17 01:21:43;;;;;;;15.80;10.63;;;5.70;99.90;;;;;;5000231;28;20114;-82
2023/11/17 01:24:09;;;;;;;18.37;10.67;;;5.70;99.90;;;;;;5002075;28;20096;-82
2023/11/17 01:26:35;;;;;;;17.00;10.93;;;5.60;99.90;;;;;;4999604;28;20058;-81
2023/11/17 01:29:04;;;;;;;19.37;11.40;;;5.60;99.90;;;;;;5003325;28;20022;-81
2023/11/17 01:31:29;;;;;;;19.67;11.37;;;5.60;99.90;;;;;;5000412;28;20029;-82
2023/11/17 01:33:55;;;;;;;19.33;11.63;;;5.60;99.90;;;;;;5001677;28;20030;-82
2023/11/17 01:36:21;;;;;;;20.50;12.00;;;5.60;99.90;;;;;;5001514;28;20038;-81
2023/11/17 01:38:48;;;;;;;18.87;11.60;;;5.60;99.90;;;;;;5000215;28;20033;-82
2023/11/17 01:41:14;;;;;;;19.13;11.03;;;5.60;99.90;;;;;;5001800;28;20513;-82
2023/11/17 01:43:39;;;;;;;21.07;11.73;;;5.60;99.90;;;;;;4999975;28;20054;-82
2023/11/17 01:46:06;;;;;;;17.50;11.43;;;5.60;99.90;;;;;;5002077;28;20186;-82
2023/11/17 01:48:34;;;;;;;18.73;11.10;;;5.60;99.90;;;;;;4999860;28;20045;-82
2023/11/17 01:51:01;;;;;;;19.67;11.77;;;5.60;99.90;;;;;;5001663;28;20023;-81
2023/11/17 01:53:28;;;;;;;20.47;11.77;;;5.60;99.90;;;;;;5001463;28;20027;-81
2023/11/17 01:55:54;;;;;;;19.33;11.63;;;5.60;99.90;;;;;;4999776;28;20045;-82
2023/11/17 01:58:20;;;;;;;19.17;11.70;;;5.60;99.90;;;;;;5002263;28;20371;-81
2023/11/17 02:00:46;;;;;;;19.07;11.60;;;5.60;99.90;;;;;;4999725;28;20090;-81
2023/11/17 02:03:15;;;;;;;20.67;11.10;;;5.60;99.90;;;;;;5001928;28;20038;-82
2023/11/17 02:05:41;;;;;;;17.07;10.83;;;5.60;99.90;;;;;;5000005;28;20038;-82
2023/11/17 02:08:35;;;;;;;17.10;11.73;;;5.60;99.90;;;;;;5001267;28;20026;-82
2023/11/17 02:11:11;;;;;;;18.53;11.47;;;5.60;99.90;;;;;;5001616;28;20042;-81
2023/11/17 02:13:49;;;;;;;21.53;12.57;;;5.70;99.90;;;;;;5015998;28;20018;-81
2023/11/17 02:16:24;;;;;;;16.93;11.10;;;5.70;99.90;;;;;;5001819;28;20019;-82
2023/11/17 02:18:54;;;;;;;18.37;11.30;;;5.70;99.90;;;;;;5002109;28;20026;-82
2023/11/17 02:21:29;;;;;;;18.50;11.43;;;5.70;99.90;;;;;;5000786;28;20030;-82
2023/11/17 02:23:56;;;;;;;16.63;10.57;;;5.70;99.90;;;;;;5001747;28;20061;-83
2023/11/17 02:26:46;;;;;;;19.17;11.40;;;5.70;99.90;;;;;;4999366;28;20129;-83
2023/11/17 02:29:29;;;;;;;16.67;11.13;;;5.70;99.90;;;;;;5001643;28;20584;-83
2023/11/17 02:31:58;;;;;;;18.73;10.63;;;5.70;99.90;;;;;;5001050;28;20027;-82
2023/11/17 02:34:25;;;;;;;19.37;11.30;;;5.70;99.90;;;;;;5001267;28;20026;-83
2023/11/17 02:36:51;;;;;;;19.67;11.57;;;5.70;99.90;;;;;;5001487;28;20030;-83
2023/11/17 02:39:26;;;;;;;16.47;11.87;;;5.70;99.90;;;;;;4999003;28;20026;-83
2023/11/17 02:41:57;;;;;;;18.30;11.70;;;5.70;99.90;;;;;;5001454;28;20023;-83
2023/11/17 02:44:33;;;;;;;19.57;12.40;;;5.70;99.90;;;;;;4999889;28;20097;-82
2023/11/17 02:47:03;;;;;;;17.40;11.27;;;5.70;99.90;;;;;;5001847;28;20034;-83
2023/11/17 02:49:41;;;;;;;16.57;10.33;;;5.70;99.90;;;;;;5001187;28;20030;-82
2023/11/17 02:52:26;;;;;;;16.57;10.93;;;5.60;99.90;;;;;;4999346;28;20027;-83
2023/11/17 02:54:53;;;;;;;16.10;10.80;;;5.70;99.90;;;;;;5006249;28;20113;-83
2023/11/17 02:57:22;;;;;;;15.87;11.47;;;5.70;99.90;;;;;;5003676;28;20082;-83
2023/11/17 02:59:48;;;;;;;18.23;10.87;;;5.70;99.90;;;;;;5003946;28;20026;-83
2023/11/17 03:02:15;;;;;;;16.33;10.10;;;5.70;99.90;;;;;;5004735;28;20382;-83
2023/11/17 03:04:42;;;;;;;17.20;10.80;;;5.70;99.90;;;;;;5002714;28;20033;-83
2023/11/17 03:07:08;;;;;;;20.77;11.53;;;5.70;99.90;;;;;;5004808;28;20034;-83
2023/11/17 03:09:34;;;;;;;16.20;10.70;;;5.70;99.90;;;;;;5002367;28;20057;-83
2023/11/17 03:12:00;;;;;;;14.30;9.93;;;5.70;99.90;;;;;;5004406;28;20486;-82
2023/11/17 03:14:27;;;;;;;25.17;11.70;;;5.70;99.90;;;;;;5003355;28;20108;-82
2023/11/17 03:16:58;;;;;;;30.70;11.33;;;5.70;99.90;;;;;;5003653;28;20038;-81
2023/11/17 03:19:25;;;;;;;33.63;11.27;;;5.70;99.90;;;;;;5004824;28;20029;-82
2023/11/17 03:21:54;;;;;;;36.87;11.20;;;5.70;99.90;;;;;;5002406;28;20049;-82
2023/11/17 03:24:23;;;;;;;48.30;12.40;;;5.70;99.90;;;;;;5004202;28;20532;-82
2023/11/17 03:26:52;;;;;;;38.63;11.13;;;5.70;99.90;;;;;;5001835;28;20057;-82
2023/11/17 03:29:19;;;;;;;53.67;10.93;;;5.70;99.90;;;;;;5004055;28;20027;-82
2023/11/17 03:31:52;;;;;;;60.03;11.47;;;5.70;99.90;;;;;;5003363;28;20026;-82
2023/11/17 03:34:28;;;;;;;44.17;10.83;;;5.70;99.90;;;;;;5002904;28;20479;-82
2023/11/17 03:37:00;;;;;;;35.00;12.33;;;5.70;99.90;;;;;;5004279;28;20061;-81
2023/11/17 03:39:32;;;;;;;24.60;11.03;;;5.70;99.90;;;;;;5001725;28;20065;-82
2023/11/17 03:41:59;;;;;;;24.50;11.13;;;5.70;99.90;;;;;;5004241;28;20038;-81
2023/11/17 03:44:27;;;;;;;37.23;11.27;;;5.70;99.90;;;;;;5002620;28;20044;-81
2023/11/17 03:46:58;;;;;;;23.93;10.77;;;5.70;99.90;;;;;;5003489;28;20026;-82
2023/11/17 03:49:25;;;;;;;25.13;11.00;;;5.70;99.90;;;;;;5003918;28;20109;-82
2023/11/17 03:51:53;;;;;;;28.40;10.50;;;5.70;99.90;;;;;;5001634;28;20092;-82
2023/11/17 03:54:21;;;;;;;27.77;10.90;;;5.70;99.90;;;;;;5020096;28;20026;-82
2023/11/17 03:56:52;;;;;;;32.67;10.70;;;5.70;99.90;;;;;;5003774;28;20033;-82
2023/11/17 03:59:22;;;;;;;24.50;10.70;;;5.70;99.90;;;;;;5020188;28;20037;-82
2023/11/17 04:01:48;;;;;;;20.27;10.10;;;5.70;99.90;;;;;;5002730;28;20732;-82
2023/11/17 04:04:18;;;;;;;35.27;10.80;;;5.70;99.90;;;;;;5001406;28;20137;-82
2023/11/17 04:06:44;;;;;;;24.73;9.97;;;5.70;99.90;;;;;;5003840;28;20038;-82
2023/11/17 04:09:15;;;;;;;20.53;9.53;;;5.70;99.90;;;;;;5002079;28;20046;-81
2023/11/17 04:11:42;;;;;;;28.53;10.30;;;5.70;99.90;;;;;;5004175;28;20033;-84
2023/11/17 04:14:07;;;;;;;28.93;11.00;;;5.70;99.90;;;;;;5001949;28;20037;-82
2023/11/17 04:16:34;;;;;;;22.13;10.20;;;5.70;99.90;;;;;;5005160;28;20418;-83
2023/11/17 04:19:00;;;;;;;43.03;10.77;;;5.70;99.90;;;;;;5002841;28;20050;-81
2023/11/17 04:21:26;;;;;;;34.13;9.67;;;5.70;99.90;;;;;;5001419;28;20026;-81
2023/11/17 04:23:52;;;;;;;26.40;10.17;;;5.70;99.90;;;;;;5003159;28;20042;-82
2023/11/17 04:26:19;;;;;;;20.23;10.00;;;5.70;99.90;;;;;;5001033;28;20050;-83
2023/11/17 04:28:46;;;;;;;22.27;10.27;;;5.70;99.90;;;;;;5002768;28;20027;-83
2023/11/17 04:31:12;;;;;;;21.60;9.70;;;5.70;99.90;;;;;;5001307;28;20090;-82
2023/11/17 04:33:38;;;;;;;18.43;10.00;;;5.70;99.90;;;;;;5002662;28;20022;-82
2023/11/17 04:36:04;;;;;;;25.00;9.57;;;5.70;99.90;;;;;;5002062;28;20068;-82
2023/11/17 04:38:30;;;;;;;12.97;9.17;;;5.70;99.90;;;;;;5001871;28;20019;-83
2023/11/17 04:40:57;;;;;;;24.07;9.90;;;5.70;99.90;;;;;;5003188;28;20121;-82
2023/11/17 04:43:22;;;;;;;19.07;9.27;;;5.70;99.90;;;;;;5002155;28;20034;-83
2023/11/17 04:45:49;;;;;;;17.50;10.00;;;5.70;99.90;;;;;;5003081;28;20027;-83
2023/11/17 04:48:16;;;;;;;27.17;10.27;;;5.70;99.90;;;;;;5000678;28;20463;-83
2023/11/17 04:50:42;;;;;;;27.10;10.67;;;5.70;99.90;;;;;;5002533;28;20019;-82
2023/11/17 04:53:08;;;;;;;36.13;11.60;;;5.70;99.90;;;;;;5001823;28;20030;-82
2023/11/17 04:55:34;;;;;;;28.80;10.70;;;5.70;99.90;;;;;;5001449;28;20031;-83
2023/11/17 04:58:00;;;;;;;30.67;10.30;;;5.80;99.90;;;;;;5002625;28;20026;-83
2023/11/17 05:00:26;;;;;;;17.80;9.83;;;5.80;99.90;;;;;;5000446;28;20034;-82
2023/11/17 05:02:54;;;;;;;25.70;10.87;;;5.80;99.90;;;;;;5002550;28;20471;-82
2023/11/17 05:05:23;;;;;;;24.50;10.90;;;5.80;99.90;;;;;;5001550;28;20030;-82
2023/11/17 05:07:49;;;;;;;20.93;9.60;;;5.80;99.90;;;;;;5002774;28;20363;-82
2023/11/17 05:10:19;;;;;;;20.43;9.73;;;5.80;99.90;;;;;;5001465;28;20028;-82
2023/11/17 05:12:48;;;;;;;22.30;10.17;;;5.90;99.90;;;;;;5001472;28;20033;-83
2023/11/17 05:15:15;;;;;;;19.00;10.23;;;5.80;99.90;;;;;;5002008;28;20026;-82
2023/11/17 05:17:45;;;;;;;24.30;9.67;;;5.80;99.90;;;;;;5002546;28;20029;-82
2023/11/17 05:20:18;;;;;;;18.73;10.10;;;5.80;99.90;;;;;;5001963;28;20038;-82
2023/11/17 05:22:46;;;;;;;22.30;9.13;;;5.90;99.90;;;;;;5001482;28;20499;-81
2023/11/17 05:25:14;;;;;;;17.03;9.73;;;5.80;99.90;;;;;;5001673;28;20784;-82
2023/11/17 05:27:40;;;;;;;19.00;9.30;;;5.80;99.90;;;;;;5001599;28;20019;-81
2023/11/17 05:30:08;;;;;;;20.83;10.00;;;5.80;99.90;;;;;;5000488;28;20022;-81
2023/11/17 05:32:34;;;;;;;20.60;10.23;;;5.80;99.90;;;;;;5002186;28;20458;-82
2023/11/17 05:35:00;;;;;;;21.70;10.63;;;5.80;99.90;;;;;;5000033;28;20057;-82
2023/11/17 05:37:26;;;;;;;16.37;10.43;;;5.80;99.90;;;;;;5002307;28;20037;-82
2023/11/17 05:39:53;;;;;;;19.67;10.23;;;5.80;99.90;;;;;;5000202;28;20026;-80
2023/11/17 05:42:19;;;;;;;21.73;10.23;;;5.80;99.90;;;;;;5001472;28;20060;-82
2023/11/17 05:44:44;;;;;;;20.23;9.77;;;5.80;99.90;;;;;;5001478;28;20027;-81
2023/11/17 05:47:10;;;;;;;20.97;9.17;;;5.80;99.90;;;;;;5002213;28;20038;-82
2023/11/17 05:49:43;;;;;;;26.37;9.83;;;5.80;99.90;;;;;;5002169;28;20616;-81
2023/11/17 05:52:13;;;;;;;20.50;10.77;;;5.80;99.90;;;;;;4999951;28;20023;-81
2023/11/17 05:54:48;;;;;;;19.03;10.00;;;5.80;99.90;;;;;;5018250;28;20078;-81
2023/11/17 05:57:15;;;;;;;17.53;9.73;;;5.80;99.90;;;;;;5000238;28;20037;-82
2023/11/17 05:59:42;;;;;;;14.87;9.30;;;5.80;99.90;;;;;;5001301;28;20026;-82
2023/11/17 06:02:08;;;;;;;22.10;10.37;;;5.80;99.90;;;;;;5001740;28;20033;-81
2023/11/17 06:04:34;;;;;;;20.07;9.67;;;5.80;99.90;;;;;;4999748;28;20402;-81
2023/11/17 06:07:01;;;;;;;25.97;10.67;;;5.80;99.90;;;;;;5002438;28;20089;-81
2023/11/17 06:09:27;;;;;;;20.40;10.73;;;5.80;99.90;;;;;;5001142;28;20033;-81
2023/11/17 06:11:55;;;;;;;21.60;11.23;;;5.80;99.90;;;;;;5002065;28;20045;-82
2023/11/17 06:14:22;;;;;;;17.07;10.73;;;5.80;99.90;;;;;;5000570;28;20026;-82
2023/11/17 06:16:50;;;;;;;16.13;10.40;;;5.80;99.90;;;;;;5002436;28;20027;-82
2023/11/17 06:19:17;;;;;;;17.23;10.40;;;5.80;99.90;;;;;;5009154;28;20026;-82
2023/11/17 06:21:42;;;;;;;16.20;11.10;;;5.80;99.90;;;;;;5026033;28;20049;-82
2023/11/17 06:24:08;;;;;;;20.53;10.90;;;5.80;99.90;;;;;;5012869;28;20398;-83
2023/11/17 06:26:35;;;;;;;14.77;10.40;;;5.80;99.90;;;;;;5018999;28;20103;-83
2023/11/17 06:29:01;;;;;;;17.03;10.93;;;5.80;99.90;;;;;;5024036;28;20064;-83
2023/11/17 06:31:27;;;;;;;16.13;10.73;;;5.80;99.90;;;;;;5023347;28;20018;-82
2023/11/17 06:33:53;;;;;;;16.13;10.13;;;5.80;99.90;;;;;;5024586;28;20027;-82
2023/11/17 06:36:19;;;;;;;13.30;9.67;;;5.80;99.90;;;;;;5025062;28;20030;-82
2023/11/17 06:38:45;;;;;;;14.53;9.90;;;5.80;99.90;;;;;;5022978;28;20097;-83
2023/11/17 06:41:13;;;;;;;15.80;10.03;;;5.80;99.90;;;;;;5025021;28;20076;-83
2023/11/17 06:43:39;;;;;;;14.33;10.50;;;5.80;99.90;;;;;;5022644;28;20038;-82
2023/11/17 06:46:07;;;;;;;14.33;10.63;;;5.90;99.90;;;;;;5024782;28;20021;-83
2023/11/17 06:48:37;;;;;;;13.50;10.27;;;5.90;99.90;;;;;;5023220;28;20030;-82
2023/11/17 06:51:05;;;;;;;14.13;9.93;;;5.80;99.90;;;;;;5023940;28;20105;-82
2023/11/17 06:53:32;;;;;;;14.13;10.00;;;5.80;99.90;;;;;;5025445;28;20022;-82
2023/11/17 06:55:59;;;;;;;14.60;9.93;;;5.80;99.90;;;;;;5023791;28;20061;-82
2023/11/17 06:58:26;;;;;;;14.93;10.47;;;5.90;99.90;;;;;;5024748;28;20021;-82
2023/11/17 07:00:51;;;;;;;14.93;10.27;;;5.90;99.90;;;;;;5022295;28;20085;-82
2023/11/17 07:03:18;;;;;;;17.73;11.10;;;5.80;99.90;;;;;;5024463;28;20038;-82
2023/11/17 07:05:45;;;;;;;15.47;8.87;;;5.80;99.90;;;;;;5022628;28;20398;-83
2023/11/17 07:08:12;;;;;;;14.23;10.83;;;5.80;99.90;;;;;;5023897;28;20026;-83
2023/11/17 07:10:41;;;;;;;15.77;10.60;;;5.90;99.90;;;;;;5024421;28;20022;-81
2023/11/17 07:13:08;;;;;;;15.20;9.90;;;5.80;99.90;;;;;;5021880;28;20021;-81
2023/11/17 07:15:34;;;;;;;15.33;10.57;;;5.80;99.90;;;;;;5023723;28;20022;-81
2023/11/17 07:17:59;;;;;;;15.80;10.77;;;5.80;99.90;;;;;;5019132;28;20032;-81
2023/11/17 07:20:25;;;;;;;14.23;10.20;;;5.80;99.90;;;;;;5005489;28;20216;-82
2023/11/17 07:22:51;;;;;;;16.20;10.10;;;5.80;99.90;;;;;;5006054;28;20098;-81
2023/11/17 07:25:17;;;;;;;13.60;9.83;;;5.80;99.90;;;;;;5022019;28;20021;-81
2023/11/17 07:27:44;;;;;;;13.63;9.67;;;5.80;99.90;;;;;;5022602;28;20034;-81
2023/11/17 07:30:13;;;;;;;15.20;10.30;;;5.90;99.90;;;;;;5021296;28;20021;-80
2023/11/17 07:32:45;;;;;;;15.27;10.50;;;5.90;99.90;;;;;;5018176;28;20076;-81
2023/11/17 07:35:13;;;;;;;13.50;10.17;;;5.90;99.90;;;;;;5013670;28;20053;-81
2023/11/17 07:37:39;;;;;;;13.33;9.30;;;5.90;99.90;;;;;;5013958;28;20041;-81
2023/11/17 07:40:06;;;;;;;13.47;9.33;;;6.00;99.90;;;;;;5020091;28;20026;-81
2023/11/17 07:42:33;;;;;;;14.53;10.17;;;6.00;99.90;;;;;;5023141;28;20033;-81
2023/11/17 07:44:58;;;;;;;12.93;9.60;;;6.00;99.90;;;;;;5023698;28;20144;-81
2023/11/17 07:47:24;;;;;;;13.03;9.60;;;6.00;99.90;;;;;;5021739;28;20501;-81
2023/11/17 07:49:54;;;;;;;14.10;10.37;;;6.00;99.90;;;;;;5021843;28;20040;-81
2023/11/17 07:52:23;;;;;;;12.93;9.63;;;6.10;99.90;;;;;;5012177;28;20036;-80
2023/11/17 07:54:49;;;;;;;14.07;9.97;;;6.10;99.90;;;;;;5013044;28;20021;-80
2023/11/17 07:57:15;;;;;;;16.00;10.23;;;6.10;99.90;;;;;;5011803;28;20056;-80
2023/11/17 07:59:41;;;;;;;14.00;8.87;;;6.20;99.90;;;;;;5012970;28;20034;-80
2023/11/17 08:02:08;;;;;;;14.10;9.23;;;6.20;99.90;;;;;;5016589;28;20018;-80
2023/11/17 08:04:33;;;;;;;16.60;9.60;;;6.20;99.90;;;;;;5010512;28;20030;-81
2023/11/17 08:07:01;;;;;;;13.43;10.03;;;6.30;99.90;;;;;;5012499;28;20018;-81
2023/11/17 08:09:28;;;;;;;13.43;9.57;;;6.30;99.90;;;;;;5011780;28;20359;-80
2023/11/17 08:11:53;;;;;;;13.53;9.93;;;6.40;99.90;;;;;;5008611;28;20058;-85
2023/11/17 08:14:19;;;;;;;15.57;9.90;;;6.40;99.90;;;;;;5007143;28;20030;-80
2023/11/17 08:16:45;;;;;;;14.67;10.00;;;6.50;99.90;;;;;;5022433;28;20089;-80
2023/11/17 08:19:11;;;;;;;14.17;9.60;;;6.50;99.90;;;;;;5023236;28;20025;-80
2023/11/17 08:21:38;;;;;;;14.20;10.00;;;6.50;99.90;;;;;;5020872;28;20117;-80
2023/11/17 08:24:04;;;;;;;16.00;9.23;;;6.60;99.90;;;;;;5022981;28;20033;-80
2023/11/17 08:26:33;;;;;;;12.53;9.63;;;6.60;99.90;;;;;;5020592;28;20085;-80
2023/11/17 08:28:59;;;;;;;14.47;9.37;;;6.70;99.90;;;;;;5022203;28;20029;-80
2023/11/17 08:31:26;;;;;;;15.10;9.50;;;6.70;99.90;;;;;;5021031;28;20064;-80
2023/11/17 08:33:52;;;;;;;13.30;9.63;;;6.70;99.90;;;;;;5023528;28;20038;-79
2023/11/17 08:36:19;;;;;;;16.57;10.10;;;6.70;99.90;;;;;;5022386;28;20033;-80
2023/11/17 08:38:45;;;;;;;14.37;10.40;;;6.70;99.90;;;;;;5020781;28;20036;-80
2023/11/17 08:41:11;;;;;;;15.80;10.50;;;6.70;99.90;;;;;;5023838;28;20026;-80
2023/11/17 08:43:39;;;;;;;15.97;11.50;;;6.70;99.90;;;;;;5020406;28;20034;-81
2023/11/17 08:46:06;;;;;;;19.20;11.63;;;6.70;99.90;;;;;;5022648;28;20061;-79
2023/11/17 08:48:34;;;;;;;15.27;10.60;;;6.80;99.90;;;;;;5006558;28;20034;-79
2023/11/17 08:51:01;;;;;;;16.83;11.00;;;6.80;99.90;;;;;;5001507;28;20485;-79
2023/11/17 08:53:26;;;;;;;17.40;12.07;;;6.80;99.90;;;;;;5002566;28;20501;-78
2023/11/17 08:55:52;;;;;;;16.17;10.90;;;6.90;99.90;;;;;;5000688;28;20022;-79
2023/11/17 08:58:20;;;;;;;17.33;12.30;;;6.90;99.90;;;;;;5003961;28;20019;-79
2023/11/17 09:00:45;;;;;;;19.03;12.90;;;6.90;99.90;;;;;;5014359;28;20053;-80
2023/11/17 09:03:11;;;;;;;17.47;11.97;;;7.00;99.90;;;;;;5023430;28;20037;-79
2023/11/17 09:05:36;;;;;;;17.67;13.20;;;7.10;99.90;;;;;;5020410;28;20026;-79
2023/11/17 09:08:02;;;;;;;18.80;13.03;;;7.10;99.90;;;;;;5017470;28;20022;-81
2023/11/17 09:10:28;;;;;;;18.70;13.60;;;7.10;99.90;;;;;;5006035;28;20053;-79
2023/11/17 09:12:53;;;;;;;19.73;14.07;;;7.20;99.90;;;;;;5000826;28;20019;-80
2023/11/17 09:15:23;;;;;;;17.20;13.07;;;7.30;99.90;;;;;;5002298;28;20022;-80
2023/11/17 09:17:52;;;;;;;21.17;14.10;;;7.40;99.90;;;;;;5000276;28;20520;-80
2023/11/17 09:20:21;;;;;;;19.20;13.27;;;7.50;99.90;;;;;;5002305;28;20081;-80
2023/11/17 09:22:47;;;;;;;19.97;14.60;;;7.70;99.90;;;;;;5000614;28;20081;-80
2023/11/17 09:25:14;;;;;;;17.93;13.13;;;7.90;99.90;;;;;;5001383;28;20065;-80
2023/11/17 09:27:54;;;;;;;17.10;11.60;;;8.20;99.90;;;;;;5001708;28;20023;-80
2023/11/17 09:30:21;;;;;;;14.23;10.23;;;8.50;99.90;;;;;;5000319;28;20038;-81
2023/11/17 09:32:49;;;;;;;15.00;9.53;;;8.90;99.90;;;;;;5002210;28;20395;-80
2023/11/17 09:35:16;;;;;;;14.35;8.63;;;9.40;99.90;;;;;;4999986;28;20041;-81
2023/11/17 09:37:50;;;;;;;13.30;7.63;;;9.90;99.90;;;;;;5002289;28;20041;-81
2023/11/17 09:40:20;;;;;;;;;;;10.40;99.90;;;;;;5002903;28;20037;-81
2023/11/17 09:42:51;;;;;;;9.65;6.35;;;10.90;99.90;;;;;;5000782;28;19916;-81
2023/11/17 09:45:25;;;;;;;10.32;6.03;;;11.20;99.90;;;;;;5002253;28;20034;-81
2023/11/17 09:48:01;;;;;;;11.80;7.28;;;11.60;99.90;;;;;;4999904;28;20099;-81
2023/11/17 09:50:29;;;;;;;9.15;5.25;;;12.00;99.90;;;;;;5003058;28;20034;-81
2023/11/17 09:52:57;;;;;;;10.32;7.00;;;12.30;99.90;;;;;;5000684;28;20022;-81
2023/11/17 09:55:33;;;;;;;13.90;6.95;;;12.60;99.90;;;;;;5000737;28;20095;-81
2023/11/17 09:58:03;;;;;;;9.40;6.07;;;12.80;99.90;;;;;;5001899;28;20073;-81
2023/11/17 10:00:31;;;;;;;11.07;7.15;;;12.70;99.90;;;;;;4999934;28;20019;-81
2023/11/17 10:03:00;;;;;;;10.07;7.03;;;12.60;99.90;;;;;;5003332;28;20046;-81
2023/11/17 10:05:28;;;;;;;12.48;7.68;;;12.50;99.90;;;;;;5003813;28;20057;-81
2023/11/17 10:07:57;;;;;;;11.38;8.35;;;12.50;99.90;;;;;;5007055;28;20110;-81
2023/11/17 10:10:26;;;;;;;11.00;6.85;;;12.70;99.90;;;;;;5006643;28;20419;-81
2023/11/17 10:12:54;;;;;;;9.18;6.35;;;13.00;99.90;;;;;;5004001;28;20026;-81
2023/11/17 10:15:25;;;;;;;9.48;6.32;;;13.30;99.90;;;;;;5005989;28;20082;-81
2023/11/17 10:18:01;;;;;;;9.68;6.82;;;13.50;99.90;;;;;;5003284;28;20027;-82
2023/11/17 10:20:28;;;;;;;12.32;7.38;;;13.60;99.90;;;;;;5008083;28;20045;-85
2023/11/17 10:22:55;;;;;;;10.50;8.07;;;13.50;99.90;;;;;;5004212;28;20015;-83
2023/11/17 10:25:22;;;;;;;13.50;8.55;;;13.50;99.90;;;;;;5004851;28;20049;-89
2023/11/17 10:27:49;;;;;;;11.38;7.90;;;13.40;99.90;;;;;;4989339;28;20054;-92
2023/11/17 10:30:16;;;;;;;12.75;8.27;;;13.30;99.90;;;;;;5003097;28;20644;-83
2023/11/17 10:32:50;;;;;;;11.90;8.13;;;13.20;99.90;;;;;;5005397;28;20085;-88
2023/11/17 10:35:25;;;;;;;12.57;7.95;;;13.10;99.90;;;;;;5004639;28;20022;-82
2023/11/17 10:37:54;;;;;;;10.90;7.15;;;13.20;99.90;;;;;;5005080;28;20522;-83
2023/11/17 10:40:31;;;;;;;9.27;6.63;;;13.40;99.90;;;;;;5004722;28;20019;-85
2023/11/17 10:43:14;;;;;;;10.90;7.35;;;13.70;99.90;;;;;;4992302;28;20029;-81
2023/11/17 10:45:47;;;;;;;10.10;7.07;;;14.20;99.90;;;;;;5024943;28;20470;-80
2023/11/17 10:48:16;;;;;;;8.18;5.38;;;14.90;99.90;;;;;;5022583;28;20441;-80
2023/11/17 10:50:43;;;;;;;10.43;5.30;;;15.50;99.90;;;;;;5024335;28;20030;-81
2023/11/17 10:53:20;;;;;;;6.97;5.03;;;16.20;99.90;;;;;;5023586;28;20064;-81
2023/11/17 10:55:48;;;;;;;9.02;4.07;;;16.90;99.90;;;;;;5022962;28;20485;-81
2023/11/17 10:58:15;;;;;;;6.88;4.20;;;17.50;99.90;;;;;;5024223;28;20022;-81
2023/11/17 11:00:45;;;;;;;6.13;3.25;;;18.00;99.30;;;;;;5020199;28;20022;-81
2023/11/17 11:03:15;;;;;;;7.72;3.67;;;18.50;97.20;;;;;;5012325;28;20027;-81
2023/11/17 11:05:44;;;;;;;6.38;3.65;;;18.40;95.40;;;;;;5002698;28;20061;-82
2023/11/17 11:08:12;;;;;;;8.88;4.50;;;18.20;93.00;;;;;;5004106;28;20034;-89
2023/11/17 11:10:38;;;;;;;9.68;4.70;;;17.90;91.20;;;;;;5004857;28;20029;-80
2023/11/17 11:13:05;;;;;;;7.28;4.88;;;17.60;90.10;;;;;;5003485;28;20049;-81
2023/11/17 11:15:34;;;;;;;8.35;5.75;;;17.20;88.40;;;;;;5018916;28;20026;-81
2023/11/17 11:18:06;;;;;;;9.30;5.80;;;16.80;86.80;;;;;;5021959;28;20025;-81
2023/11/17 11:20:33;;;;;;;8.25;5.53;;;16.50;85.50;;;;;;5024446;28;20026;-81
2023/11/17 11:23:02;;;;;;;8.38;5.38;;;16.20;85.20;;;;;;5013806;28;20022;-80
2023/11/17 11:25:29;;;;;;;7.80;5.15;;;15.90;83.50;;;;;;5002987;28;20054;-81
2023/11/17 11:28:03;;;;;;;8.25;4.55;;;15.60;83.00;;;;;;5020410;28;20023;-80
2023/11/17 11:30:32;;;;;;;6.43;3.97;;;15.40;82.50;;;;;;5003300;28;20022;-81
2023/11/17 11:32:59;;;;;;;7.65;3.55;;;15.30;82.50;;;;;;5004375;28;20086;-81
2023/11/17 11:35:24;;;;;;;7.25;3.70;;;15.30;83.10;;;;;;5001816;28;20026;-81
2023/11/17 11:37:52;;;;;;;5.07;2.85;;;15.50;84.20;;;;;;5004086;28;20033;-81
2023/11/17 11:40:19;;;;;;;7.15;3.20;;;16.00;84.90;;;;;;5007393;28;20033;-81
2023/11/17 11:42:44;;;;;;;8.10;3.25;;;16.60;85.00;;;;;;5004212;28;20141;-81
2023/11/17 11:45:16;;;;;;;3.78;2.38;;;17.20;83.90;;;;;;5003861;28;20452;-81
2023/11/17 11:47:49;;;;;;;4.65;2.58;;;17.60;83.10;;;;;;5001878;28;20026;-81
2023/11/17 11:50:20;;;;;;;4.65;2.13;;;18.20;82.20;;;;;;5004051;28;20470;-81
2023/11/17 11:53:05;;;;;;;3.92;1.88;;;18.60;80.10;;;;;;5002424;28;20030;-82
2023/11/17 11:55:32;;;;;;;6.72;2.55;;;18.90;78.20;;;;;;5002599;28;20023;-82
2023/11/17 11:57:58;;;;;;;5.40;2.20;;;19.10;77.60;;;;;;5004036;28;20031;-82
2023/11/17 12:00:26;;;;;;;6.55;2.63;;;19.20;76.40;;;;;;5001507;28;20537;-82
2023/11/17 12:03:00;;;;;;;3.10;1.77;;;19.20;73.50;;;;;;5003970;28;20026;-82
2023/11/17 12:05:33;;;;;;;3.97;1.65;;;19.40;72.30;;;;;;5001693;28;20034;-81
2023/11/17 12:08:02;;;;;;;2.00;1.10;;;19.70;72.00;;;;;;5003455;28;20046;-82
2023/11/17 12:10:41;;;;;;;2.30;1.10;;;20.10;70.90;;;;;;5004373;28;20443;-81
2023/11/17 12:13:07;;;;;;;2.35;1.10;;;20.50;68.10;;;;;;5001502;28;20018;-81
2023/11/17 12:15:33;;;;;;;2.17;1.02;;;20.90;67.60;;;;;;5003494;28;20085;-82
2023/11/17 12:17:59;;;;;;;3.20;0.90;;;21.20;65.90;;;;;;5000997;28;20022;-81
2023/11/17 12:20:27;;;;;;;2.45;0.95;;;21.60;65.80;;;;;;5003130;28;20038;-81
2023/11/17 12:23:01;;;;;;;2.22;1.15;;;22.00;64.20;;;;;;5002305;28;20023;-82
2023/11/17 12:25:28;;;;;;;2.88;1.30;;;22.20;61.70;;;;;;5001333;28;20034;-81
2023/11/17 12:27:56;;;;;;;2.45;1.02;;;22.00;58.90;;;;;;5004321;28;20086;-81
2023/11/17 12:30:22;;;;;;;2.83;1.00;;;21.50;57.40;;;;;;5001049;28;20019;-81
2023/11/17 12:32:51;;;;;;;2.85;1.17;;;20.90;57.10;;;;;;5003296;28;20521;-81
2023/11/17 12:35:20;;;;;;;2.25;1.27;;;20.30;57.80;;;;;;5002322;28;20030;-81
2023/11/17 12:37:49;;;;;;;2.65;1.10;;;19.60;58.40;;;;;;5002960;28;20022;-81
2023/11/17 12:40:19;;;;;;;3.35;1.40;;;19.10;58.70;;;;;;5002237;28;20049;-81
2023/11/17 12:42:49;;;;;;;3.63;1.58;;;18.50;59.20;;;;;;5001259;28;20026;-81
2023/11/17 12:45:16;;;;;;;3.03;1.55;;;18.20;60.80;;;;;;5002984;28;20034;-81